Aeroporto :
LOGIN :

Iscrizione | Disclaimer

   EN    FR    IT 

 










Sommario :    VFR   VFR Marginale   IFR   IFR Intensivo   IFR Molto Intensivo
Visibilità : 
Base nubi : 
>= 8 km
>= 3000ft
5 / 8 km
1000 / 3000 ft
1500m / 5 km
500 / 1000 ft
800 / 1500m
200 / 500 ft
< 800m
< 200 ft
Simboli :   Temporali  Nebbia  Neve Forte  Precipitazioni Forti  Vento > 20 kt
SIGMETs :   Varie  Temporali  Ghiacco  Turbolenza  Onda orograficha  Ceneri Vulcaniche







- Altitudine del aeroporto : 183 ft
- Codice IATA : HAJ


EDDV - Hanover/Langenhagen Int.

ULTIMO METAR :
  • 120420Z 02004KT 9999 BKN034 02/01 Q1024 NOSIG

METARs OBSOLETI :
  • 120350Z 36005KT 9999 BKN034 03/01 Q1024 NOSIG
  • 120320Z 34006KT 9999 FEW020 BKN034 03/01 Q1024
  • 120250Z 36008KT 9999 FEW020 BKN034 03/01 Q1024
  • 120220Z 35008KT 9999 BKN034 03/01 Q1024
  • 120150Z 33007KT 9999 BKN035 03/01 Q1023

TAF TAF EDDV
Valido dal 12 a 00 ore il 13 a 00 ore UTC


112300Z 1200/1224 32005KT 9999 BKN020
BECMG 1203/1205 02005KT
TEMPO 1203/1224 BKN012
PROB40
TEMPO 1217/1224 BKN006
BECMG 1218/1220 08005KT
Nessun NOTAM noto per questo aeroporto.



MetMap, La meteo Aeronautica in un colpo d'occhio ! - Copyright ORBIFLY Dicembre 2007 - Disclaimer

ORBIFLY MET'MAP TEAM :

Programmazione e sviluppo : Alexandra Zaïnal
Concezione e sviluppo : Baudouin d'Aumeries
Co-Programmazione e sviluppo : Marc-Olivier Méhu
Supporto tecnico e logistico : Manuel Goepfert
Aiuto per la traduzione : Arnaldo La Scala

Contatto : metmap@orbifly.com




FONTI E CREDITI :

   NOAA